Time;durP1;ratioP1;P1;durP2;ratioP2;P2;SDS_P1;SDS_P2;PMS_P1;PMS_P2;Temp;Humidity;BMP_temperature;BMP_pressure;BME280_temperature;BME280_humidity;BME280_pressure;Samples;Min_cycle;Max_cycle;Signal;HPM_P1;HPM_P2
2022/03/07 00:01:45;;;;;;;24.47;11.48;;;;;;;1.52;61.76;101531.55;1716159;82;26765;-62
2022/03/07 00:04:14;;;;;;;19.57;11.28;;;;;;;1.53;62.04;101531.08;1716048;83;25712;-62
2022/03/07 00:06:41;;;;;;;23.60;10.90;;;;;;;1.52;62.23;101529.38;1716158;83;28371;-62
2022/03/07 00:09:08;;;;;;;22.30;12.47;;;;;;;1.50;62.37;101537.84;1716046;83;26420;-62
2022/03/07 00:11:36;;;;;;;21.55;10.75;;;;;;;1.52;62.43;101534.20;1716267;82;25723;-62
2022/03/07 00:14:03;;;;;;;25.17;11.57;;;;;;;1.52;62.28;101528.90;1716331;83;26087;-62
2022/03/07 00:16:31;;;;;;;22.40;10.82;;;;;;;1.50;62.24;101525.44;1716294;83;25732;-63
2022/03/07 00:18:58;;;;;;;20.12;12.20;;;;;;;1.50;62.35;101525.91;1716045;83;28146;-63
2022/03/07 00:21:26;;;;;;;21.68;11.97;;;;;;;1.51;62.42;101522.34;1724937;81;25826;-62
2022/03/07 00:23:53;;;;;;;23.30;11.08;;;;;;;1.51;62.40;101524.52;1752823;81;25796;-62
2022/03/07 00:26:20;;;;;;;18.32;11.10;;;;;;;1.47;62.35;101521.59;1752753;81;28254;-63
2022/03/07 00:28:48;;;;;;;17.42;9.78;;;;;;;1.40;62.33;101522.73;1752586;81;25709;-62
2022/03/07 00:31:16;;;;;;;20.50;11.33;;;;;;;1.37;62.40;101521.06;1752575;81;28103;-62
2022/03/07 00:33:44;;;;;;;31.15;11.12;;;;;;;1.38;62.55;101509.55;1752572;81;25850;-61
2022/03/07 00:36:11;;;;;;;20.92;10.72;;;;;;;1.40;62.70;101509.47;1747231;81;25673;-64
2022/03/07 00:38:38;;;;;;;24.27;11.20;;;;;;;1.40;62.73;101502.41;1713373;83;26116;-63
2022/03/07 00:41:04;;;;;;;22.82;11.63;;;;;;;1.39;62.75;101503.32;1713371;83;25648;-61
2022/03/07 00:43:32;;;;;;;18.25;11.25;;;;;;;1.41;62.83;101505.91;1724227;82;27498;-61
2022/03/07 00:45:59;;;;;;;21.85;11.38;;;;;;;1.40;62.91;101497.55;1718485;82;25745;-61
2022/03/07 00:48:26;;;;;;;23.73;12.18;;;;;;;1.40;62.86;101490.91;1716303;83;25757;-61
2022/03/07 00:50:54;;;;;;;18.50;10.58;;;;;;;1.39;62.74;101493.19;1713701;83;26142;-62
2022/03/07 00:53:24;;;;;;;18.95;11.55;;;;;;;1.39;62.70;101487.89;1684363;84;25727;-61
2022/03/07 00:55:53;;;;;;;22.77;11.15;;;;;;;1.38;62.83;101487.01;1684537;85;27450;-61
2022/03/07 00:58:21;;;;;;;19.32;9.98;;;;;;;1.35;62.92;101483.14;1684221;85;25800;-61
2022/03/07 01:00:49;;;;;;;24.30;11.20;;;;;;;1.35;63.04;101471.69;1684313;84;25777;-62
2022/03/07 01:03:18;;;;;;;23.92;11.53;;;;;;;1.34;63.04;101466.86;1684318;84;26100;-62
2022/03/07 01:05:46;;;;;;;27.15;12.20;;;;;;;1.31;62.89;101470.94;1684240;83;25829;-62
2022/03/07 01:08:13;;;;;;;20.60;11.97;;;;;;;1.29;62.90;101473.26;1684509;83;27451;-62
2022/03/07 01:10:40;;;;;;;20.32;10.35;;;;;;;1.29;62.91;101466.16;1684579;85;25480;-62
2022/03/07 01:13:08;;;;;;;24.57;11.70;;;;;;;1.29;63.01;101463.50;1684220;85;25744;-62
2022/03/07 01:15:35;;;;;;;22.58;13.08;;;;;;;1.29;63.04;101455.55;1684566;85;25621;-62
2022/03/07 01:18:04;;;;;;;25.62;11.65;;;;;;;1.27;62.99;101449.91;1684248;85;25762;-62
2022/03/07 01:20:32;;;;;;;20.77;11.65;;;;;;;1.29;63.23;101452.90;1684329;85;27491;-62
2022/03/07 01:23:00;;;;;;;25.25;12.98;;;;;;;1.24;63.18;101454.41;1651093;85;25868;-62
2022/03/07 01:25:28;;;;;;;29.45;14.73;;;;;;;1.22;63.30;101445.64;1684505;85;25848;-62
2022/03/07 01:27:56;;;;;;;24.52;13.62;;;;;;;1.22;63.37;101446.97;1684306;84;26474;-62
2022/03/07 01:30:23;;;;;;;24.45;13.00;;;;;;;1.20;63.28;101451.48;1684601;85;25724;-62
2022/03/07 01:32:53;;;;;;;24.02;12.60;;;;;;;1.22;63.38;101443.47;1684175;83;27502;-62
2022/03/07 01:35:20;;;;;;;22.77;12.63;;;;;;;1.21;63.32;101442.58;1684249;85;25789;-62
2022/03/07 01:37:48;;;;;;;26.42;12.95;;;;;;;1.20;63.27;101438.23;1678998;84;25787;-62
2022/03/07 01:40:15;;;;;;;21.80;12.80;;;;;;;1.21;63.38;101431.98;1676949;85;26804;-62
2022/03/07 01:42:42;;;;;;;23.35;12.23;;;;;;;1.23;63.52;101428.81;1685690;84;25785;-62
2022/03/07 01:45:16;;;;;;;25.20;12.33;;;;;;;1.22;63.48;101429.73;1678288;85;27492;-62
2022/03/07 01:47:44;;;;;;;27.77;12.28;;;;;;;1.18;63.52;101426.81;1678768;85;25535;-62
2022/03/07 01:50:16;;;;;;;24.90;13.05;;;;;;;1.18;63.52;101429.47;1679185;85;25709;-62
2022/03/07 01:52:47;;;;;;;23.60;12.15;;;;;;;1.17;63.54;101425.53;1678889;85;26096;-62
2022/03/07 01:55:15;;;;;;;20.70;12.78;;;;;;;1.16;63.59;101418.06;1679141;85;26514;-62
2022/03/07 01:57:47;;;;;;;25.05;13.72;;;;;;;1.16;63.61;101419.86;1678935;85;28201;-62
2022/03/07 02:00:19;;;;;;;21.60;12.88;;;;;;;1.16;63.63;101422.51;1679089;85;25517;-62
2022/03/07 02:02:47;;;;;;;22.15;12.45;;;;;;;1.17;63.62;101419.79;1678750;85;25812;-62
2022/03/07 02:05:16;;;;;;;27.10;13.60;;;;;;;1.17;63.65;101414.48;1679077;84;27065;-62
2022/03/07 02:07:45;;;;;;;25.90;12.82;;;;;;;1.16;63.65;101420.70;1689183;83;25868;-62
2022/03/07 02:10:13;;;;;;;27.75;14.03;;;;;;;1.18;63.77;101415.34;1685717;83;27870;-62
2022/03/07 02:12:42;;;;;;;32.70;15.50;;;;;;;1.18;63.83;101413.56;1677466;85;25658;-62
2022/03/07 02:15:11;;;;;;;36.55;18.35;;;;;;;1.18;63.92;101416.22;1678562;85;25667;-62
2022/03/07 02:17:38;;;;;;;34.67;16.87;;;;;;;1.20;64.00;101410.84;1678633;85;26092;-62
2022/03/07 02:20:07;;;;;;;31.77;15.68;;;;;;;1.21;63.98;101407.28;1678892;85;25927;-62
2022/03/07 02:22:35;;;;;;;25.72;14.10;;;;;;;1.21;63.91;101412.10;1678823;85;27546;-62
2022/03/07 02:25:01;;;;;;;27.05;14.65;;;;;;;1.19;63.95;101406.47;1678867;85;25848;-61
2022/03/07 02:27:29;;;;;;;28.92;15.18;;;;;;;1.19;63.96;101409.12;1678653;85;25827;-62
2022/03/07 02:29:56;;;;;;;32.78;15.95;;;;;;;1.18;64.02;101414.89;1678769;85;26758;-61
2022/03/07 02:32:24;;;;;;;25.40;14.50;;;;;;;1.19;64.07;101411.33;1679054;85;25736;-62
2022/03/07 02:34:52;;;;;;;30.43;14.43;;;;;;;1.20;63.93;101413.50;1680284;85;27586;-62
2022/03/07 02:37:19;;;;;;;30.37;14.58;;;;;;;1.19;64.04;101406.47;1675087;84;25934;-61
2022/03/07 02:39:48;;;;;;;27.32;14.90;;;;;;;1.19;64.08;101399.39;1672635;85;25767;-62
2022/03/07 02:42:15;;;;;;;22.32;13.78;;;;;;;1.18;64.09;101410.92;1672570;84;26155;-62
2022/03/07 02:44:43;;;;;;;24.85;13.85;;;;;;;1.16;64.06;101411.43;1716005;83;25485;-62
2022/03/07 02:47:14;;;;;;;28.12;13.90;;;;;;;1.17;64.06;101407.86;1718470;83;27464;-61
2022/03/07 02:49:41;;;;;;;28.67;14.63;;;;;;;1.15;63.94;101405.73;1712029;83;25796;-62
2022/03/07 02:52:09;;;;;;;26.23;13.75;;;;;;;1.12;63.91;101408.48;1718752;83;25823;-62
2022/03/07 02:54:38;;;;;;;23.12;12.60;;;;;;;1.11;63.88;101405.91;1718770;83;26698;-62
2022/03/07 02:57:07;;;;;;;24.47;14.70;;;;;;;1.11;63.90;101401.92;1718967;83;25596;-62
2022/03/07 02:59:35;;;;;;;27.45;14.07;;;;;;;1.08;63.85;101397.14;1718659;83;28462;-62
2022/03/07 03:02:03;;;;;;;25.65;13.13;;;;;;;1.08;63.91;101404.24;1718711;83;25718;-62
2022/03/07 03:04:30;;;;;;;25.40;13.30;;;;;;;1.06;63.99;101402.11;1718858;83;25754;-61
2022/03/07 03:06:57;;;;;;;26.35;12.58;;;;;;;1.04;63.97;101400.85;1719008;83;26933;-61
2022/03/07 03:09:24;;;;;;;26.75;14.00;;;;;;;1.00;64.06;101397.05;1718771;82;25771;-61
2022/03/07 03:11:50;;;;;;;23.55;13.90;;;;;;;0.98;64.21;101398.45;1718592;83;27472;-61
2022/03/07 03:14:17;;;;;;;28.65;14.07;;;;;;;1.00;64.29;101399.70;1718621;83;25718;-61
2022/03/07 03:16:45;;;;;;;21.60;13.35;;;;;;;0.99;64.38;101400.63;1718730;83;26469;-61
2022/03/07 03:19:11;;;;;;;23.15;12.88;;;;;;;0.99;64.49;101400.63;1718756;83;26056;-61
2022/03/07 03:21:39;;;;;;;34.65;15.90;;;;;;;0.95;64.33;101394.58;1718745;83;25813;-61
2022/03/07 03:24:06;;;;;;;24.70;13.30;;;;;;;0.96;64.33;101392.34;1718918;83;27360;-61
2022/03/07 03:26:33;;;;;;;25.55;14.07;;;;;;;0.96;64.28;101392.78;1718373;83;25795;-61
2022/03/07 03:29:00;;;;;;;26.40;13.88;;;;;;;0.95;64.36;101393.25;1719006;82;25671;-61
2022/03/07 03:31:27;;;;;;;27.55;13.48;;;;;;;0.96;64.41;101387.04;1718775;83;26027;-61
2022/03/07 03:33:53;;;;;;;25.00;13.98;;;;;;;0.96;64.46;101391.02;1718574;83;25726;-61
2022/03/07 03:36:20;;;;;;;21.42;12.28;;;;;;;0.97;64.61;101384.80;1710500;83;27569;-61
2022/03/07 03:38:47;;;;;;;25.48;13.00;;;;;;;0.96;64.62;101391.02;1672433;84;25914;-61
2022/03/07 03:41:14;;;;;;;22.17;13.15;;;;;;;0.96;64.75;101384.83;1672446;85;26718;-61
2022/03/07 03:43:41;;;;;;;26.23;13.28;;;;;;;0.97;65.03;101383.91;1691222;83;26120;-61
2022/03/07 03:46:08;;;;;;;25.75;13.65;;;;;;;0.98;65.00;101383.00;1688737;83;25749;-61
2022/03/07 03:48:35;;;;;;;29.00;15.68;;;;;;;1.01;65.11;101385.53;1678881;85;27487;-61
2022/03/07 03:51:01;;;;;;;29.87;14.85;;;;;;;1.04;65.01;101386.28;1678900;85;25810;-61
2022/03/07 03:53:29;;;;;;;25.02;13.88;;;;;;;1.08;65.05;101384.38;1678948;85;25686;-61
2022/03/07 03:55:55;;;;;;;31.82;14.65;;;;;;;1.08;65.02;101373.30;1678988;85;26160;-62
2022/03/07 03:58:22;;;;;;;26.85;14.60;;;;;;;1.08;64.75;101379.07;1678970;85;25488;-61
2022/03/07 04:00:49;;;;;;;22.00;12.45;;;;;;;1.02;64.54;101370.05;1679155;85;28122;-61
2022/03/07 04:03:16;;;;;;;26.95;15.13;;;;;;;1.01;64.55;101372.29;1678774;85;26414;-60
2022/03/07 04:05:43;;;;;;;28.75;15.08;;;;;;;0.99;64.62;101368.35;1678839;85;25706;-62
2022/03/07 04:08:10;;;;;;;28.80;14.63;;;;;;;0.96;64.67;101368.50;1678911;85;25969;-61
2022/03/07 04:10:37;;;;;;;27.48;14.93;;;;;;;0.90;64.67;101368.27;1678998;85;25483;-61
2022/03/07 04:13:04;;;;;;;29.20;14.30;;;;;;;0.90;64.75;101367.38;1679131;85;27481;-61
2022/03/07 04:15:31;;;;;;;23.57;14.03;;;;;;;0.88;64.88;101367.45;1678850;85;25709;-61
2022/03/07 04:17:58;;;;;;;27.05;15.13;;;;;;;0.85;64.75;101363.59;1678791;85;25489;-61
2022/03/07 04:20:25;;;;;;;24.92;14.38;;;;;;;0.84;64.91;101363.22;1678981;85;26078;-61
2022/03/07 04:22:52;;;;;;;33.30;16.15;;;;;;;0.82;64.86;101360.20;1679336;85;25916;-61
2022/03/07 04:25:20;;;;;;;35.03;15.78;;;;;;;0.80;64.99;101357.62;1675129;85;27504;-61
2022/03/07 04:27:47;;;;;;;30.62;15.98;;;;;;;0.79;65.11;101357.21;1672489;85;25842;-61
2022/03/07 04:30:14;;;;;;;31.50;16.27;;;;;;;0.81;65.20;101355.37;1672643;85;25507;-61
2022/03/07 04:32:41;;;;;;;37.25;16.73;;;;;;;0.85;65.40;101358.77;1672572;85;26742;-62
2022/03/07 04:35:11;;;;;;;37.03;16.87;;;;;;;0.85;65.50;101356.97;1672686;85;25761;-62
2022/03/07 04:37:40;;;;;;;30.65;15.83;;;;;;;0.84;65.46;101364.54;1666762;85;27496;-62
2022/03/07 04:40:20;;;;;;;27.85;16.07;;;;;;;0.85;65.28;101360.09;1639888;86;25936;-62
2022/03/07 04:42:46;;;;;;;29.98;16.17;;;;;;;0.83;65.16;101354.86;1668621;83;25761;-61
2022/03/07 04:45:14;;;;;;;30.95;15.85;;;;;;;0.85;65.37;101359.61;1689837;84;26812;-62
2022/03/07 04:47:42;;;;;;;34.00;16.15;;;;;;;0.88;65.58;101354.69;1663537;85;26167;-62
2022/03/07 04:50:12;;;;;;;27.95;15.40;;;;;;;0.92;65.57;101356.27;1600863;89;27508;-62
2022/03/07 04:52:42;;;;;;;26.55;16.45;;;;;;;0.92;65.59;101350.98;1657549;86;25802;-61
2022/03/07 04:55:11;;;;;;;36.23;15.83;;;;;;;0.93;65.62;101348.29;1657762;86;25623;-62
2022/03/07 04:57:38;;;;;;;30.02;16.73;;;;;;;0.97;65.56;101352.13;1634150;87;26096;-62
2022/03/07 05:00:08;;;;;;;28.30;15.83;;;;;;;0.97;65.51;101346.82;1634902;87;26367;-62
2022/03/07 05:02:35;;;;;;;35.20;17.87;;;;;;;0.97;65.46;101347.70;1634690;86;27130;-62
2022/03/07 05:05:04;;;;;;;33.23;17.62;;;;;;;0.97;65.35;101346.82;1634779;86;25778;-61
2022/03/07 05:07:31;;;;;;;36.10;17.27;;;;;;;0.96;65.29;101343.77;1634766;87;25811;-62
2022/03/07 05:09:58;;;;;;;33.20;18.20;;;;;;;0.96;65.20;101341.13;1634601;87;26184;-62
2022/03/07 05:12:25;;;;;;;31.80;16.90;;;;;;;0.96;65.30;101343.77;1634273;86;27318;-61
2022/03/07 05:14:52;;;;;;;35.28;18.02;;;;;;;0.94;65.26;101343.84;1634997;86;28156;-62
2022/03/07 05:17:18;;;;;;;29.80;17.07;;;;;;;0.93;65.27;101336.37;1634525;86;25738;-62
2022/03/07 05:19:47;;;;;;;32.93;17.00;;;;;;;0.95;65.22;101337.63;1635972;86;25749;-62
2022/03/07 05:22:15;;;;;;;38.95;18.17;;;;;;;0.96;65.36;101334.50;1634502;87;26163;-62
2022/03/07 05:24:42;;;;;;;30.43;16.10;;;;;;;0.95;65.31;101329.67;1634630;87;25686;-62
2022/03/07 05:27:09;;;;;;;36.03;15.70;;;;;;;0.95;65.31;101328.34;1634956;86;28322;-61
2022/03/07 05:29:37;;;;;;;30.85;16.48;;;;;;;0.94;65.27;101328.80;1634434;86;25808;-62
2022/03/07 05:32:06;;;;;;;34.00;17.17;;;;;;;0.93;65.22;101330.19;1634435;87;25614;-61
2022/03/07 05:34:33;;;;;;;32.70;17.20;;;;;;;0.92;65.41;101324.04;1634634;86;26040;-62
2022/03/07 05:37:00;;;;;;;40.63;20.80;;;;;;;0.94;65.47;101327.47;1633510;86;25780;-61
2022/03/07 05:39:27;;;;;;;35.60;19.23;;;;;;;0.96;65.54;101323.45;1642047;85;27482;-61
2022/03/07 05:41:53;;;;;;;167.25;27.07;;;;;;;0.97;65.70;101327.83;1680746;85;25926;-61
2022/03/07 05:44:20;;;;;;;49.58;21.97;;;;;;;1.00;65.68;101324.19;1679149;85;25756;-61
2022/03/07 05:46:47;;;;;;;38.83;19.73;;;;;;;1.03;65.57;101322.76;1650110;85;28294;-61
2022/03/07 05:49:14;;;;;;;36.98;18.75;;;;;;;1.06;65.42;101322.61;1691548;84;25803;-61
2022/03/07 05:51:43;;;;;;;36.60;18.85;;;;;;;1.07;65.41;101328.31;1718485;83;28241;-61
2022/03/07 05:54:10;;;;;;;35.17;18.35;;;;;;;1.07;65.40;101328.31;1715614;83;25468;-62
2022/03/07 05:56:37;;;;;;;38.90;18.50;;;;;;;1.09;65.45;101319.85;1713359;83;26463;-62
2022/03/07 05:59:04;;;;;;;41.18;20.77;;;;;;;1.14;65.58;101319.67;1713492;83;26782;-62
2022/03/07 06:01:31;;;;;;;42.20;20.43;;;;;;;1.16;65.53;101322.65;1713452;83;25791;-62
2022/03/07 06:03:58;;;;;;;40.33;21.52;;;;;;;1.17;65.47;101320.84;1716125;82;28465;-62
2022/03/07 06:06:25;;;;;;;36.70;20.57;;;;;;;1.18;65.41;101325.23;1711423;82;25805;-62
2022/03/07 06:08:52;;;;;;;41.55;19.62;;;;;;;1.22;65.45;101326.36;1711735;82;25823;-62
2022/03/07 06:11:19;;;;;;;37.90;19.45;;;;;;;1.25;65.42;101326.25;1715619;82;26151;-62
2022/03/07 06:13:46;;;;;;;44.60;17.25;;;;;;;1.28;65.32;101324.41;1713526;83;25742;-62
2022/03/07 06:16:13;;;;;;;39.23;16.60;;;;;;;1.31;64.71;101326.91;1713274;83;28289;-63
2022/03/07 06:18:40;;;;;;;39.70;17.42;;;;;;;1.30;63.80;101324.74;1713456;83;25731;-62
2022/03/07 06:21:08;;;;;;;47.25;20.97;;;;;;;1.27;63.86;101324.01;1713733;83;25805;-62
2022/03/07 06:23:36;;;;;;;46.85;20.48;;;;;;;1.30;64.21;101322.56;1713435;83;26936;-62
2022/03/07 06:26:07;;;;;;;46.83;17.82;;;;;;;1.36;64.16;101319.66;1713287;83;25757;-63
2022/03/07 06:28:34;;;;;;;44.08;20.30;;;;;;;1.39;64.00;101319.06;1678162;85;27492;-62
2022/03/07 06:31:02;;;;;;;48.70;21.07;;;;;;;1.45;63.91;101319.72;1713322;83;25849;-63
2022/03/07 06:33:29;;;;;;;52.33;21.15;;;;;;;1.44;63.60;101316.22;1713375;83;25730;-62
2022/03/07 06:35:56;;;;;;;44.13;19.90;;;;;;;1.44;63.78;101318.88;1720176;82;26801;-62
2022/03/07 06:38:23;;;;;;;42.03;19.42;;;;;;;1.47;63.66;101311.24;1643893;85;25878;-63
2022/03/07 06:40:50;;;;;;;44.45;19.80;;;;;;;1.52;63.21;101315.91;1699224;83;27477;-62
2022/03/07 06:43:17;;;;;;;48.60;19.35;;;;;;;1.52;62.73;101316.76;1729821;82;25821;-62
2022/03/07 06:45:45;;;;;;;50.63;19.48;;;;;;;1.49;62.78;101316.88;1725650;81;25735;-62
2022/03/07 06:48:13;;;;;;;44.48;19.73;;;;;;;1.53;62.59;101315.84;1720160;82;26765;-62
2022/03/07 06:50:40;;;;;;;51.85;19.30;;;;;;;1.53;62.21;101319.81;1712914;82;25752;-62
2022/03/07 06:53:07;;;;;;;41.85;19.52;;;;;;;1.51;62.03;101314.19;1721093;82;27482;-62
2022/03/07 06:55:34;;;;;;;41.90;19.50;;;;;;;1.50;62.18;101317.76;1720197;82;25899;-62
2022/03/07 06:58:02;;;;;;;44.35;21.45;;;;;;;1.52;62.27;101315.91;1721927;82;25799;-62
2022/03/07 07:00:28;;;;;;;47.45;20.10;;;;;;;1.52;61.77;101311.45;1721751;82;26802;-62
2022/03/07 07:02:55;;;;;;;59.42;21.87;;;;;;;1.52;61.67;101306.62;1719917;82;25803;-62
2022/03/07 07:05:22;;;;;;;44.33;21.07;;;;;;;1.54;61.63;101306.95;1721611;81;27464;-62
2022/03/07 07:07:49;;;;;;;55.17;21.62;;;;;;;1.56;61.50;101301.13;1709793;83;25728;-62
2022/03/07 07:10:22;;;;;;;40.85;21.42;;;;;;;1.59;61.37;101304.11;1709535;83;25732;-62
2022/03/07 07:12:48;;;;;;;44.67;20.57;;;;;;;1.63;61.61;101300.86;1708505;83;26120;-62
2022/03/07 07:15:15;;;;;;;60.23;21.07;;;;;;;1.69;61.49;101296.61;1709830;83;25464;-62
2022/03/07 07:17:43;;;;;;;62.80;21.90;;;;;;;1.77;61.27;101293.16;1709528;83;27383;-62
2022/03/07 07:20:12;;;;;;;52.93;22.85;;;;;;;1.83;61.33;101292.91;1709411;83;25786;-62
2022/03/07 07:22:40;;;;;;;50.55;20.05;;;;;;;1.85;60.98;101293.69;1709728;83;25526;-62
2022/03/07 07:25:10;;;;;;;45.90;19.55;;;;;;;1.92;60.93;101292.11;1709661;83;26220;-62
2022/03/07 07:27:38;;;;;;;41.42;19.27;;;;;;;2.02;60.19;101300.03;1715311;82;25800;-62
2022/03/07 07:30:08;;;;;;;40.05;19.45;;;;;;;2.04;60.14;101283.59;1720507;82;27466;-62
2022/03/07 07:32:38;;;;;;;43.17;17.27;;;;;;;2.06;60.28;101288.37;1711846;82;26563;-62
2022/03/07 07:35:09;;;;;;;47.40;16.25;;;;;;;2.16;60.03;101288.36;1719864;82;25854;-62
2022/03/07 07:37:36;;;;;;;40.15;17.50;;;;;;;2.26;60.27;101288.79;1722405;82;27167;-62
2022/03/07 07:40:05;;;;;;;55.78;20.00;;;;;;;2.37;59.73;101283.02;1726139;82;25781;-62
2022/03/07 07:42:32;;;;;;;38.50;19.27;;;;;;;2.40;58.59;101276.20;1731906;82;27435;-62
2022/03/07 07:45:00;;;;;;;41.10;18.70;;;;;;;2.44;57.45;101276.92;1730356;82;25782;-62
2022/03/07 07:47:27;;;;;;;54.95;19.12;;;;;;;2.45;57.26;101274.22;1711991;83;25717;-62
2022/03/07 07:49:54;;;;;;;48.75;19.40;;;;;;;2.48;58.15;101279.37;1712046;83;26868;-62
2022/03/07 07:52:20;;;;;;;47.98;19.95;;;;;;;2.55;56.97;101275.97;1712155;83;25843;-62
2022/03/07 07:54:47;;;;;;;46.40;20.88;;;;;;;2.53;56.31;101269.86;1711831;83;27458;-61
2022/03/07 07:57:14;;;;;;;43.70;18.57;;;;;;;2.53;56.92;101277.83;1713555;81;26026;-62
2022/03/07 07:59:40;;;;;;;44.63;20.32;;;;;;;2.50;55.96;101268.70;1712096;83;25470;-62
2022/03/07 08:02:07;;;;;;;44.42;19.98;;;;;;;2.50;56.87;101262.91;1713577;81;26716;-62
2022/03/07 08:04:34;;;;;;;53.02;23.32;;;;;;;2.54;56.41;101264.94;1712307;83;25751;-62
2022/03/07 08:07:02;;;;;;;44.55;20.62;;;;;;;2.50;56.89;101264.23;1712139;83;27476;-62
2022/03/07 08:09:29;;;;;;;41.08;20.48;;;;;;;2.48;56.35;101270.08;1711832;83;25756;-62
2022/03/07 08:11:56;;;;;;;46.65;19.15;;;;;;;2.42;56.31;101265.06;1712007;83;25798;-62
2022/03/07 08:14:23;;;;;;;37.93;20.65;;;;;;;2.48;56.84;101262.10;1712027;83;26110;-61
2022/03/07 08:16:50;;;;;;;30.35;18.32;;;;;;;2.55;56.65;101267.15;1712139;83;25759;-62
2022/03/07 08:19:17;;;;;;;28.95;14.93;;;;;;;2.57;55.86;101259.50;1719277;82;27526;-62
2022/03/07 08:21:45;;;;;;;27.02;14.15;;;;;;;2.56;54.47;101252.91;1728222;82;25809;-62
2022/03/07 08:24:12;;;;;;;30.27;16.10;;;;;;;2.52;55.57;101253.52;1729524;82;26500;-62
2022/03/07 08:26:39;;;;;;;31.80;14.93;;;;;;;2.59;56.00;101254.98;1727731;82;26102;-62
2022/03/07 08:29:05;;;;;;;24.75;14.38;;;;;;;2.58;54.76;101254.58;1730516;82;25742;-62
2022/03/07 08:31:32;;;;;;;24.43;14.98;;;;;;;2.60;54.61;101246.05;1733525;81;28260;-63
2022/03/07 08:33:59;;;;;;;26.87;14.65;;;;;;;2.62;54.31;101239.36;1722673;82;25816;-62
2022/03/07 08:36:26;;;;;;;35.08;14.00;;;;;;;2.65;54.12;101244.50;1722369;83;25726;-62
2022/03/07 08:38:53;;;;;;;32.10;15.20;;;;;;;2.70;54.03;101229.22;1720118;83;26101;-62
2022/03/07 08:41:20;;;;;;;27.22;14.85;;;;;;;2.82;53.66;101241.05;1707170;82;26044;-62
2022/03/07 08:43:49;;;;;;;27.27;14.40;;;;;;;2.97;54.28;101235.45;1725671;81;27529;-62
2022/03/07 08:46:16;;;;;;;28.95;15.15;;;;;;;3.16;53.89;101241.19;1720483;82;25750;-61
2022/03/07 08:48:43;;;;;;;23.20;14.23;;;;;;;3.31;53.68;101238.23;1711835;83;25768;-61
2022/03/07 08:51:10;;;;;;;27.02;15.08;;;;;;;3.45;53.18;101231.24;1711499;83;26144;-61
2022/03/07 08:53:37;;;;;;;39.58;15.45;;;;;;;3.65;53.51;101228.02;1711845;83;25822;-61
2022/03/07 08:56:05;;;;;;;38.35;15.23;;;;;;;3.87;53.63;101222.91;1711617;83;27469;-61
2022/03/07 08:58:31;;;;;;;36.50;14.40;;;;;;;4.05;53.17;101219.72;1711679;83;25801;-61
2022/03/07 09:00:58;;;;;;;32.67;15.30;;;;;;;4.21;51.64;101225.92;1711341;82;25762;-61
2022/03/07 09:03:25;;;;;;;29.00;13.95;;;;;;;4.32;51.71;101230.69;1711577;83;26069;-60
2022/03/07 09:05:52;;;;;;;28.85;15.68;;;;;;;4.44;51.54;101218.48;1711681;83;25799;-61
2022/03/07 09:08:19;;;;;;;27.80;15.18;;;;;;;4.53;50.84;101223.75;1711432;83;28186;-61
2022/03/07 09:10:46;;;;;;;28.67;14.93;;;;;;;4.66;50.74;101222.13;1715432;82;26544;-60
2022/03/07 09:13:13;;;;;;;26.48;15.03;;;;;;;4.77;50.10;101217.52;1716391;81;25783;-61
2022/03/07 09:15:42;;;;;;;27.15;14.87;;;;;;;4.89;49.61;101217.77;1721974;82;26152;-61
2022/03/07 09:18:09;;;;;;;27.87;14.40;;;;;;;5.07;49.72;101212.70;1727155;82;25816;-61
2022/03/07 09:20:36;;;;;;;35.95;14.15;;;;;;;5.21;47.69;101207.89;1723712;82;27469;-61
2022/03/07 09:23:03;;;;;;;33.00;14.00;;;;;;;5.31;47.86;101211.73;1700092;83;25647;-61
2022/03/07 09:25:30;;;;;;;33.88;13.53;;;;;;;5.42;48.33;101204.91;1670984;84;25733;-61
2022/03/07 09:27:57;;;;;;;29.85;13.70;;;;;;;5.50;47.79;101209.30;1667880;84;26102;-60
2022/03/07 09:30:24;;;;;;;22.45;13.85;;;;;;;5.55;47.70;101203.20;1667924;86;27328;-61
2022/03/07 09:32:52;;;;;;;24.98;14.75;;;;;;;5.56;46.53;101198.25;1667771;86;27500;-61
2022/03/07 09:35:19;;;;;;;12.78;8.13;;;;;;;5.59;46.85;101196.73;1667836;86;25508;-61
2022/03/07 09:37:46;;;;;;;19.50;8.60;;;;;;;5.64;45.34;101201.80;1660477;86;25816;-61
2022/03/07 09:40:13;;;;;;;20.35;10.23;;;;;;;5.62;44.29;101202.36;1662393;86;26104;-61
2022/03/07 09:42:41;;;;;;;18.55;11.50;;;;;;;5.56;44.17;101192.91;1663774;86;25738;-61
2022/03/07 09:45:12;;;;;;;21.35;10.98;;;;;;;5.68;45.15;101195.79;1697809;83;27635;-61
2022/03/07 09:47:43;;;;;;;22.27;11.65;;;;;;;5.88;45.29;101189.21;1716013;83;25743;-61
2022/03/07 09:50:11;;;;;;;28.05;12.40;;;;;;;6.06;44.60;101185.88;1716432;83;25794;-61
2022/03/07 09:52:38;;;;;;;23.18;11.85;;;;;;;6.21;43.98;101182.72;1716207;83;26863;-61
2022/03/07 09:55:09;;;;;;;26.00;12.68;;;;;;;6.24;44.91;101183.88;1715971;83;25515;-61
2022/03/07 09:57:36;;;;;;;20.50;10.75;;;;;;;6.37;45.23;101182.11;1716121;83;27495;-61
2022/03/07 10:00:04;;;;;;;16.87;10.55;;;;;;;6.52;44.07;101178.94;1716068;83;25820;-61
2022/03/07 10:02:33;;;;;;;21.50;11.55;;;;;;;6.46;43.27;101171.32;1700347;83;25818;-60
2022/03/07 10:05:02;;;;;;;23.92;12.23;;;;;;;6.42;43.78;101177.34;1690637;83;26783;-62
2022/03/07 10:07:30;;;;;;;24.02;11.43;;;;;;;6.42;44.77;101175.14;1682824;84;25693;-62
2022/03/07 10:10:10;;;;;;;25.70;12.58;;;;;;;6.35;43.38;101177.38;1691541;83;27436;-62
2022/03/07 10:12:49;;;;;;;18.80;9.65;;;;;;;6.30;43.69;101162.59;1703863;83;25817;-62
2022/03/07 10:15:21;;;;;;;15.13;9.63;;;;;;;6.38;44.36;101158.45;1720531;83;25508;-62
2022/03/07 10:17:53;;;;;;;15.70;9.13;;;;;;;6.60;43.59;101165.08;1699292;83;26781;-63
2022/03/07 10:20:24;;;;;;;16.90;9.25;;;;;;;6.76;42.73;101160.05;1699268;83;25748;-62
2022/03/07 10:22:55;;;;;;;20.85;9.03;;;;;;;6.86;43.33;101157.98;1697567;83;27465;-62
2022/03/07 10:25:26;;;;;;;17.60;10.05;;;;;;;7.02;42.99;101151.63;1701191;83;25973;-61
2022/03/07 10:27:55;;;;;;;15.45;9.03;;;;;;;7.17;42.79;101145.22;1683737;83;26050;-62
2022/03/07 10:30:30;;;;;;;25.68;9.80;;;;;;;7.26;42.92;101138.86;1699688;83;26850;-62
2022/03/07 10:33:05;;;;;;;21.55;12.75;;;;;;;7.19;42.46;101140.62;1685590;83;25822;-62
2022/03/07 10:35:42;;;;;;;15.55;8.78;;;;;;;7.11;42.28;101136.29;1684798;82;28342;-62
2022/03/07 10:38:17;;;;;;;17.20;8.55;;;;;;;7.05;42.10;101135.34;1690449;83;25862;-61
2022/03/07 10:40:48;;;;;;;23.27;7.62;;;;;;;6.98;41.31;101129.58;1719210;80;25500;-62
2022/03/07 10:43:15;;;;;;;11.73;7.05;;;;;;;6.95;39.72;101127.09;1729329;82;26149;-62
2022/03/07 10:45:49;;;;;;;13.32;7.53;;;;;;;6.82;40.37;101131.09;1728292;82;25817;-62
2022/03/07 10:48:18;;;;;;;14.73;7.85;;;;;;;6.74;39.91;101132.08;1724306;81;27451;-62
2022/03/07 10:50:52;;;;;;;15.38;7.55;;;;;;;6.63;40.01;101121.23;1727044;82;25467;-61
2022/03/07 10:53:20;;;;;;;17.92;7.62;;;;;;;6.56;40.28;101121.66;1723851;81;25787;-62
2022/03/07 10:55:55;;;;;;;16.95;8.25;;;;;;;6.51;40.44;101127.77;1718974;81;26145;-63
2022/03/07 10:58:22;;;;;;;15.55;7.90;;;;;;;6.37;39.19;101115.31;1704244;82;25726;-62
2022/03/07 11:00:56;;;;;;;12.55;6.55;;;;;;;6.16;39.67;101117.56;1738155;81;27461;-61
2022/03/07 11:03:31;;;;;;;11.12;6.33;;;;;;;5.99;39.28;101113.33;1699392;81;25755;-61
2022/03/07 11:06:00;;;;;;;14.30;7.95;;;;;;;5.86;39.69;101115.02;1746043;81;25775;-61
2022/03/07 11:08:28;;;;;;;10.93;7.08;;;;;;;5.92;40.49;101113.28;1755344;81;25935;-61
2022/03/07 11:10:58;;;;;;;11.90;7.67;;;;;;;6.04;40.49;101094.34;1755033;81;25605;-60
2022/03/07 11:13:29;;;;;;;11.35;7.20;;;;;;;6.09;40.37;101096.22;1755196;81;27491;-61
2022/03/07 11:16:00;;;;;;;11.65;6.85;;;;;;;6.09;40.47;101093.09;1754833;81;25808;-60
2022/03/07 11:18:28;;;;;;;24.45;8.50;;;;;;;6.06;41.03;101099.08;1755099;81;25826;-61
2022/03/07 11:20:57;;;;;;;17.05;7.92;;;;;;;5.82;39.78;101094.33;1755542;81;25602;-62